Urb Coco Beach, Puerto Rico
Current Conditions -  °F | °C
As of 7:56 AM on Friday 31 Oct 2014 (Local Time) from TJSJ Reporting Station
Scattered Clouds Scattered Clouds  
Wind Chill: 83°   Ceiling: Unl
Heat Index: 91°   Visibility: 10mi
Dew Point: 76°   Wind: 0mph
Humidity: 79%   Direction: NA
Pressure: 29.87"   Gusts: NA
Location:  18.3817°N, 65.8302°W
Report Text: TJSJ 311156Z 00000KT 10SM FEW030 SCT060 28/24 A2987 RMK AO2 SLP112 T02830244 10283 20261 51019
Loading
Personal Weather Stations






























Interactive Weather Map
Tropical Storm Tracking
New forecast layout! Learn more

10-Day Weather Forecast

Advertisements
Track Severe Weather on mobile